createdAt,value
2019-03-10T00:00:09.209Z,95354.36
2019-03-10T00:02:38.326Z,95359.58
2019-03-10T00:05:07.645Z,95355.50
2019-03-10T00:07:36.687Z,95354.11
2019-03-10T00:10:07.000Z,95358.35
2019-03-10T00:12:36.117Z,95361.47
2019-03-10T00:15:05.392Z,95368.33
2019-03-10T00:17:34.465Z,95375.10
2019-03-10T00:20:03.553Z,95370.88
2019-03-10T00:22:32.626Z,95370.71
2019-03-10T00:25:01.823Z,95375.28
2019-03-10T00:27:31.607Z,95371.30
2019-03-10T00:30:00.625Z,95383.13
2019-03-10T00:32:29.731Z,95387.70
2019-03-10T00:34:59.159Z,95387.57
2019-03-10T00:37:28.106Z,95392.70
2019-03-10T00:42:14.305Z,95392.14
2019-03-10T00:45:14.364Z,95389.91
2019-03-10T00:47:55.104Z,95380.84
2019-03-10T00:50:33.630Z,95366.89
2019-03-10T00:53:02.845Z,95363.81
2019-03-10T00:55:31.911Z,95364.05
2019-03-10T00:58:01.115Z,95374.89
2019-03-10T01:00:30.360Z,95375.36
2019-03-10T01:19:44.728Z,95372.13
2019-03-10T01:22:13.770Z,95373.66
2019-03-10T01:41:27.585Z,95373.32
2019-03-10T01:43:56.674Z,95371.86
2019-03-10T01:46:25.727Z,95361.86
2019-03-10T01:48:54.717Z,95354.49
2019-03-10T01:51:23.851Z,95340.38
2019-03-10T01:53:52.878Z,95339.28
2019-03-10T01:56:22.488Z,95338.20
2019-03-10T01:58:51.543Z,95334.07
2019-03-10T02:01:20.708Z,95336.10
2019-03-10T02:03:49.704Z,95333.53
2019-03-10T02:06:18.777Z,95332.77
2019-03-10T02:08:47.898Z,95331.55
2019-03-10T02:11:17.090Z,95330.20
2019-03-10T02:13:46.216Z,95330.27
2019-03-10T02:16:15.304Z,95324.98
2019-03-10T02:18:44.396Z,95332.62
2019-03-10T02:21:13.514Z,95340.78
2019-03-10T02:23:42.673Z,95339.25
2019-03-10T02:26:11.697Z,95347.56
2019-03-10T02:28:41.533Z,95350.86
2019-03-10T02:31:10.588Z,95357.91
2019-03-10T02:33:39.687Z,95347.33
2019-03-10T02:36:09.282Z,95318.28
2019-03-10T02:38:38.285Z,95350.54
2019-03-10T02:41:07.382Z,95364.22
2019-03-10T02:43:36.511Z,95372.43
2019-03-10T02:46:05.573Z,95376.59
2019-03-10T02:48:34.668Z,95389.18
2019-03-10T02:51:03.746Z,95387.73
2019-03-10T02:53:35.570Z,95391.37
2019-03-10T02:56:04.666Z,95394.11
2019-03-10T02:58:33.609Z,95398.28
2019-03-10T03:01:02.650Z,95403.08
2019-03-10T03:03:31.751Z,95406.39
2019-03-10T03:06:00.738Z,95400.81
2019-03-10T03:08:29.870Z,95392.35
2019-03-10T03:10:58.933Z,95387.88
2019-03-10T03:13:27.990Z,95388.75
2019-03-10T03:15:57.061Z,95389.61
2019-03-10T03:18:26.202Z,95389.37
2019-03-10T03:20:55.271Z,95381.14
2019-03-10T03:23:24.368Z,95379.64
2019-03-10T03:25:53.377Z,95375.06
2019-03-10T03:28:22.472Z,95370.08
2019-03-10T03:30:51.572Z,95374.21
2019-03-10T03:33:20.702Z,95382.83
2019-03-10T03:35:55.235Z,95383.83
2019-03-10T03:38:28.765Z,95388.18
2019-03-10T03:41:00.553Z,95381.38
2019-03-10T03:43:29.673Z,95387.02
2019-03-10T03:45:59.563Z,95398.87
2019-03-10T03:48:29.626Z,95397.57
2019-03-10T03:50:58.702Z,95397.93
2019-03-10T03:53:27.686Z,95403.72
2019-03-10T03:55:56.963Z,95397.48
2019-03-10T03:58:26.115Z,95410.30
2019-03-10T04:01:00.541Z,95409.14
2019-03-10T04:03:29.589Z,95399.59
2019-03-10T04:05:58.676Z,95397.48
2019-03-10T04:08:27.669Z,95410.58
2019-03-10T04:10:56.760Z,95405.82
2019-03-10T04:13:25.877Z,95403.36
2019-03-10T04:15:55.032Z,95414.61
2019-03-10T04:18:24.247Z,95408.05
2019-03-10T04:20:53.247Z,95409.90
2019-03-10T04:23:22.397Z,95423.93
2019-03-10T04:25:51.439Z,95413.81
2019-03-10T04:28:20.452Z,95420.35
2019-03-10T04:30:55.771Z,95427.56
2019-03-10T04:33:24.901Z,95425.23
2019-03-10T04:52:38.657Z,95439.45
2019-03-10T04:55:13.105Z,95441.33
2019-03-10T04:57:46.311Z,95446.11
2019-03-10T05:00:15.386Z,95448.27
2019-03-10T05:02:44.408Z,95449.86
2019-03-10T05:05:13.481Z,95450.57
2019-03-10T05:07:42.500Z,95453.52
2019-03-10T05:26:56.368Z,95474.48
2019-03-10T05:46:10.503Z,95475.39
2019-03-10T05:48:39.583Z,95468.66
2019-03-10T05:51:08.629Z,95472.63
2019-03-10T05:53:37.620Z,95477.12
2019-03-10T05:56:06.692Z,95489.13
2019-03-10T05:58:35.709Z,95507.80
2019-03-10T06:01:04.612Z,95508.64
2019-03-10T06:03:33.644Z,95517.12
2019-03-10T06:06:02.701Z,95527.88
2019-03-10T06:08:31.793Z,95532.00
2019-03-10T06:11:00.805Z,95538.80
2019-03-10T06:30:15.732Z,95571.48
2019-03-10T06:32:44.754Z,95578.86
2019-03-10T06:35:14.437Z,95586.53
2019-03-10T06:37:43.492Z,95573.89
2019-03-10T06:40:12.618Z,95574.39
2019-03-10T06:42:41.690Z,95568.30
2019-03-10T06:45:10.865Z,95578.15
2019-03-10T06:47:39.962Z,95578.31
2019-03-10T06:50:12.249Z,95574.56
2019-03-10T06:52:39.520Z,95576.95
2019-03-10T06:55:08.709Z,95569.80
2019-03-10T07:14:24.882Z,95570.42
2019-03-10T07:16:57.452Z,95579.41
2019-03-10T07:19:26.598Z,95580.80
2019-03-10T07:21:57.456Z,95593.20
2019-03-10T07:24:27.388Z,95588.93
2019-03-10T07:26:57.090Z,95588.30
2019-03-10T07:29:29.161Z,95592.42
2019-03-10T07:32:02.227Z,95584.90
2019-03-10T07:57:13.894Z,95551.77
2019-03-10T07:59:50.189Z,95551.27
2019-03-10T08:02:24.045Z,95546.15
2019-03-10T08:05:09.366Z,95546.34
2019-03-10T08:26:56.836Z,95506.30
2019-03-10T08:31:34.160Z,95499.92
2019-03-10T08:50:53.556Z,95495.05
2019-03-10T08:53:28.689Z,95487.68
2019-03-10T08:56:04.555Z,95496.06
2019-03-10T08:58:37.101Z,95490.54
2019-03-10T09:02:15.028Z,95486.08
2019-03-10T09:04:53.218Z,95492.13
2019-03-10T09:07:58.648Z,95474.80
2019-03-10T09:10:36.693Z,95469.83
2019-03-10T09:13:11.110Z,95483.78
2019-03-10T09:15:50.180Z,95485.12
2019-03-10T09:19:27.112Z,95478.78
2019-03-10T09:22:03.421Z,95472.22
2019-03-10T09:25:09.661Z,95460.30
2019-03-10T09:28:16.265Z,95452.60
2019-03-10T09:30:50.405Z,95439.66
2019-03-10T09:33:28.686Z,95430.95
2019-03-10T09:36:08.724Z,95423.98
2019-03-10T09:38:54.906Z,95418.84
2019-03-10T09:42:27.900Z,95410.17
2019-03-10T09:45:02.117Z,95399.75
2019-03-10T09:47:40.060Z,95402.48
2019-03-10T09:50:18.576Z,95393.58
2019-03-10T09:55:01.923Z,95403.02
2019-03-10T09:57:36.048Z,95406.81
2019-03-10T10:00:12.902Z,95397.62
2019-03-10T10:04:51.495Z,95395.48
2019-03-10T10:07:25.731Z,95386.06
2019-03-10T10:10:02.006Z,95378.97
2019-03-10T10:12:35.339Z,95378.46
2019-03-10T10:16:10.581Z,95374.11
2019-03-10T10:38:04.603Z,95340.61
2019-03-10T10:41:37.826Z,95340.02
2019-03-10T10:45:10.026Z,95351.36
2019-03-10T10:47:50.997Z,95324.98
2019-03-10T10:51:24.232Z,95329.06
2019-03-10T10:54:03.441Z,95335.77
2019-03-10T10:56:46.487Z,95337.42
2019-03-10T10:59:24.675Z,95318.45
2019-03-10T11:02:14.524Z,95317.66
2019-03-10T11:04:51.502Z,95325.71
2019-03-10T11:07:27.697Z,95316.97
2019-03-10T11:10:03.866Z,95303.59
2019-03-10T11:12:47.006Z,95307.65
2019-03-10T11:15:21.917Z,95299.98
2019-03-10T11:18:08.903Z,95292.70
2019-03-10T11:23:32.386Z,95275.11
2019-03-10T11:26:09.540Z,95267.27
2019-03-10T11:28:47.508Z,95277.23
2019-03-10T11:31:24.558Z,95259.36
2019-03-10T11:33:57.697Z,95252.05
2019-03-10T11:36:37.792Z,95257.08
2019-03-10T11:39:16.316Z,95244.19
2019-03-10T11:41:50.613Z,95243.64
2019-03-10T11:44:34.588Z,95230.55
2019-03-10T11:47:07.710Z,95224.91
2019-03-10T11:49:47.766Z,95221.86
2019-03-10T11:52:22.970Z,95215.98
2019-03-10T11:55:28.347Z,95216.06
2019-03-10T11:58:01.535Z,95221.33
2019-03-10T12:00:41.600Z,95201.63
2019-03-10T12:03:16.764Z,95190.63
2019-03-10T12:07:58.325Z,95191.94
2019-03-10T12:10:27.579Z,95195.17
2019-03-10T12:12:56.577Z,95178.65
2019-03-10T12:15:25.721Z,95177.74
2019-03-10T12:17:54.695Z,95165.33
2019-03-10T12:20:23.760Z,95157.20
2019-03-10T12:22:52.812Z,95150.59
2019-03-10T12:25:21.949Z,95139.59
2019-03-10T12:27:50.983Z,95133.80
2019-03-10T12:30:20.036Z,95138.91
2019-03-10T12:32:49.073Z,95122.42
2019-03-10T12:35:18.108Z,95114.48
2019-03-10T12:37:47.859Z,95117.51
2019-03-10T12:40:16.845Z,95100.25
2019-03-10T12:42:45.909Z,95098.53
2019-03-10T12:45:15.038Z,95094.38
2019-03-10T12:47:44.116Z,95093.11
2019-03-10T12:50:13.244Z,95087.89
2019-03-10T12:52:48.635Z,95079.81
2019-03-10T12:55:17.714Z,95069.76
2019-03-10T12:57:46.635Z,95059.58
2019-03-10T13:00:15.752Z,95059.64
2019-03-10T13:02:44.792Z,95043.37
2019-03-10T13:05:13.951Z,95047.37
2019-03-10T13:07:43.012Z,95035.37
2019-03-10T13:10:12.824Z,95023.53
2019-03-10T13:12:41.214Z,95014.70
2019-03-10T13:15:10.697Z,95014.11
2019-03-10T13:17:39.728Z,95004.81
2019-03-10T13:20:09.070Z,95004.55
2019-03-10T13:22:38.076Z,94995.30
2019-03-10T13:25:07.609Z,94987.02
2019-03-10T13:27:36.659Z,94988.62
2019-03-10T13:46:51.835Z,94938.89
2019-03-10T13:49:21.589Z,94937.50
2019-03-10T13:51:50.687Z,94937.96
2019-03-10T13:54:19.827Z,94931.41
2019-03-10T13:56:48.889Z,94925.52
2019-03-10T13:59:17.978Z,94918.06
2019-03-10T14:01:47.696Z,94915.39
2019-03-10T14:04:16.807Z,94908.17
2019-03-10T14:06:45.984Z,94910.64
2019-03-10T14:09:14.974Z,94923.86
2019-03-10T14:11:44.070Z,94915.83
2019-03-10T14:14:13.213Z,94905.38
2019-03-10T14:16:42.507Z,94902.11
2019-03-10T14:19:11.613Z,94916.34
2019-03-10T14:21:40.682Z,94903.17
2019-03-10T14:24:09.986Z,94896.99
2019-03-10T14:26:39.109Z,94893.64
2019-03-10T14:29:08.173Z,94899.07
2019-03-10T14:31:37.109Z,94890.91
2019-03-10T14:34:06.197Z,94901.55
2019-03-10T14:36:35.258Z,94899.95
2019-03-10T14:39:05.109Z,94892.88
2019-03-10T14:41:34.149Z,94884.47
2019-03-10T14:44:03.321Z,94884.14
2019-03-10T14:46:32.393Z,94896.79
2019-03-10T14:49:01.460Z,94891.88
2019-03-10T14:51:30.545Z,94890.52
2019-03-10T14:53:59.709Z,94894.94
2019-03-10T14:56:28.937Z,94886.72
2019-03-10T14:58:57.758Z,94874.24
2019-03-10T15:01:27.019Z,94874.61
2019-03-10T15:03:56.040Z,94874.35
2019-03-10T15:06:25.178Z,94875.09
2019-03-10T15:08:54.519Z,94868.55
2019-03-10T15:11:23.627Z,94868.95
2019-03-10T15:13:53.046Z,94863.34
2019-03-10T15:16:22.304Z,94869.89
2019-03-10T15:18:51.385Z,94886.09
2019-03-10T15:21:20.413Z,94866.47
2019-03-10T15:23:49.532Z,94854.87
2019-03-10T15:26:19.014Z,94856.22
2019-03-10T15:28:50.377Z,94856.64
2019-03-10T15:31:17.448Z,94858.02
2019-03-10T15:33:46.628Z,94850.62
2019-03-10T15:36:20.237Z,94857.20
2019-03-10T15:38:45.156Z,94845.86
2019-03-10T15:41:14.228Z,94846.65
2019-03-10T15:43:43.329Z,94841.39
2019-03-10T15:46:12.441Z,94843.23
2019-03-10T15:48:41.404Z,94841.31
2019-03-10T15:51:11.135Z,94841.31
2019-03-10T15:53:40.236Z,94848.05
2019-03-10T15:56:09.386Z,94843.49
2019-03-10T15:58:38.402Z,94841.52
2019-03-10T16:01:07.272Z,94821.86
2019-03-10T16:03:36.393Z,94831.58
2019-03-10T16:06:05.701Z,94829.41
2019-03-10T16:08:34.817Z,94837.91
2019-03-10T16:11:03.864Z,94819.17
2019-03-10T16:13:32.972Z,94836.77
2019-03-10T16:16:01.971Z,94819.78
2019-03-10T16:18:30.980Z,94833.63
2019-03-10T16:21:00.190Z,94831.36
2019-03-10T16:23:29.340Z,94822.62
2019-03-10T16:25:58.550Z,94812.80
2019-03-10T16:28:27.657Z,94823.50
2019-03-10T16:30:56.768Z,94824.38
2019-03-10T16:33:25.852Z,94822.79
2019-03-10T16:35:55.072Z,94827.38
2019-03-10T16:38:24.145Z,94828.56
2019-03-10T16:40:53.248Z,94823.41
2019-03-10T16:43:22.361Z,94822.16
2019-03-10T16:45:51.454Z,94825.98
2019-03-10T16:48:20.560Z,94820.44
2019-03-10T16:50:49.623Z,94809.56
2019-03-10T16:53:18.778Z,94808.52
2019-03-10T16:55:47.823Z,94811.91
2019-03-10T16:58:17.011Z,94806.53
2019-03-10T17:00:46.375Z,94818.92
2019-03-10T17:03:15.421Z,94811.05
2019-03-10T17:05:45.153Z,94807.66
2019-03-10T17:08:14.041Z,94808.08
2019-03-10T17:10:43.185Z,94800.37
2019-03-10T17:13:12.061Z,94799.00
2019-03-10T17:15:41.133Z,94806.72
2019-03-10T17:18:10.178Z,94788.64
2019-03-10T17:20:41.454Z,94786.78
2019-03-10T17:23:10.754Z,94787.02
2019-03-10T17:25:40.668Z,94796.38
2019-03-10T17:28:09.808Z,94796.64
2019-03-10T17:30:38.774Z,94768.63
2019-03-10T17:33:07.895Z,94786.59
2019-03-10T17:35:37.055Z,94783.75
2019-03-10T17:38:06.177Z,94788.81
2019-03-10T17:40:35.114Z,94783.44
2019-03-10T17:43:04.285Z,94782.78
2019-03-10T17:45:33.399Z,94777.80
2019-03-10T17:48:02.540Z,94770.55
2019-03-10T17:50:31.699Z,94758.31
2019-03-10T17:53:00.829Z,94765.72
2019-03-10T17:55:29.788Z,94758.91
2019-03-10T17:57:58.845Z,94754.12
2019-03-10T18:00:28.016Z,94758.56
2019-03-10T18:19:41.459Z,94744.67
2019-03-10T18:22:10.593Z,94751.03
2019-03-10T18:41:24.561Z,94735.16
2019-03-10T18:43:53.573Z,94725.52
2019-03-10T18:46:22.608Z,94721.05
2019-03-10T18:48:51.773Z,94729.53
2019-03-10T18:51:21.026Z,94723.12
2019-03-10T18:53:50.096Z,94719.87
2019-03-10T18:56:19.145Z,94711.55
2019-03-10T18:58:48.400Z,94704.70
2019-03-10T19:01:17.506Z,94706.33
2019-03-10T19:03:46.645Z,94704.82
2019-03-10T19:06:15.689Z,94709.02
2019-03-10T19:08:44.785Z,94705.75
2019-03-10T19:11:13.728Z,94703.31
2019-03-10T19:13:42.793Z,94691.37
2019-03-10T19:16:11.908Z,94695.41
2019-03-10T19:18:41.007Z,94687.99
2019-03-10T19:21:09.957Z,94690.05
2019-03-10T19:23:39.100Z,94688.26
2019-03-10T19:26:08.328Z,94690.95
2019-03-10T19:28:37.347Z,94684.85
2019-03-10T19:31:06.603Z,94687.45
2019-03-10T19:33:35.772Z,94681.45
2019-03-10T19:36:04.941Z,94678.04
2019-03-10T19:38:33.938Z,94670.32
2019-03-10T19:57:47.149Z,94689.40
2019-03-10T20:00:16.883Z,94673.25
2019-03-10T20:02:46.006Z,94686.41
2019-03-10T20:05:15.247Z,94679.63
2019-03-10T20:07:45.208Z,94679.45
2019-03-10T20:10:14.716Z,94684.73
2019-03-10T20:12:43.854Z,94686.34
2019-03-10T20:15:14.595Z,94689.33
2019-03-10T20:17:43.571Z,94687.75
2019-03-10T20:20:14.338Z,94670.83
2019-03-10T20:22:43.339Z,94676.91
2019-03-10T20:25:12.537Z,94680.28
2019-03-10T20:27:41.698Z,94674.13
2019-03-10T20:30:13.331Z,94679.19
2019-03-10T20:32:42.414Z,94666.23
2019-03-10T20:35:11.554Z,94673.83
2019-03-10T20:37:40.658Z,94667.75
2019-03-10T20:40:10.833Z,94651.13
2019-03-10T20:42:39.924Z,94652.16
2019-03-10T20:45:09.020Z,94664.72
2019-03-10T20:47:38.221Z,94662.34
2019-03-10T20:50:08.117Z,94661.36
2019-03-10T20:52:37.503Z,94661.11
2019-03-10T20:55:06.977Z,94654.17
2019-03-10T20:57:36.052Z,94661.34
2019-03-10T21:00:05.965Z,94670.38
2019-03-10T21:02:35.064Z,94677.30
2019-03-10T21:05:04.489Z,94670.31
2019-03-10T21:07:33.582Z,94665.77
2019-03-10T21:10:02.681Z,94660.79
2019-03-10T21:12:39.817Z,94677.78
2019-03-10T21:15:01.189Z,94675.87
2019-03-10T21:17:30.266Z,94681.50
2019-03-10T21:19:59.947Z,94682.90
2019-03-10T21:22:29.125Z,94686.37
2019-03-10T21:24:58.144Z,94675.23
2019-03-10T21:27:28.333Z,94674.09
2019-03-10T21:29:58.079Z,94672.28
2019-03-10T21:32:27.181Z,94678.72
2019-03-10T21:34:56.277Z,94681.41
2019-03-10T21:37:25.422Z,94673.31
2019-03-10T21:39:54.522Z,94675.66
2019-03-10T21:42:23.664Z,94674.59
2019-03-10T21:44:53.024Z,94670.22
2019-03-10T21:47:22.065Z,94678.44
2019-03-10T21:49:51.205Z,94675.90
2019-03-10T21:52:20.517Z,94681.23
2019-03-10T21:54:49.549Z,94682.23
2019-03-10T21:57:18.676Z,94684.38
2019-03-10T21:59:47.780Z,94681.77
2019-03-10T22:02:16.879Z,94685.91
2019-03-10T22:04:45.931Z,94694.17
2019-03-10T22:07:15.102Z,94697.20
2019-03-10T22:09:44.333Z,94698.13
2019-03-10T22:12:13.432Z,94700.56
2019-03-10T22:14:42.563Z,94701.53
2019-03-10T22:17:11.617Z,94699.89
2019-03-10T22:19:40.716Z,94708.27
2019-03-10T22:22:09.869Z,94712.98
2019-03-10T22:24:39.077Z,94713.20
2019-03-10T22:27:08.134Z,94702.66
2019-03-10T22:29:37.245Z,94708.21
2019-03-10T22:32:06.216Z,94710.86
2019-03-10T22:34:35.390Z,94708.50
2019-03-10T22:37:04.237Z,94712.67
2019-03-10T22:39:33.333Z,94714.58
2019-03-10T22:42:02.490Z,94723.92
2019-03-10T22:44:31.658Z,94734.33
2019-03-10T22:47:00.827Z,94738.27
2019-03-10T22:49:29.886Z,94743.13
2019-03-10T22:51:59.020Z,94740.27
2019-03-10T22:54:28.178Z,94736.59
2019-03-10T22:56:57.278Z,94741.02
2019-03-10T22:59:26.429Z,94740.61
2019-03-10T23:01:55.466Z,94733.77
2019-03-10T23:04:24.534Z,94735.11
2019-03-10T23:06:53.613Z,94734.87
2019-03-10T23:09:22.688Z,94738.81
2019-03-10T23:11:52.049Z,94749.08
2019-03-10T23:14:21.138Z,94747.00
2019-03-10T23:16:52.236Z,94744.40
2019-03-10T23:19:19.109Z,94751.73
2019-03-10T23:21:48.153Z,94749.14
2019-03-10T23:24:17.304Z,94755.19
2019-03-10T23:26:46.380Z,94754.98
2019-03-10T23:29:16.049Z,94750.01
2019-03-10T23:31:45.140Z,94750.78
2019-03-10T23:34:14.224Z,94762.64
2019-03-10T23:36:43.371Z,94767.13
2019-03-10T23:39:12.746Z,94779.20
2019-03-10T23:41:41.926Z,94782.65
2019-03-10T23:44:11.076Z,94778.95
2019-03-10T23:46:40.177Z,94782.63
2019-03-10T23:49:09.269Z,94776.88
2019-03-10T23:51:39.049Z,94770.84
2019-03-10T23:54:08.245Z,94774.52
2019-03-10T23:56:37.386Z,94771.34
2019-03-10T23:59:07.185Z,94764.52
